Time;durP1;ratioP1;P1;durP2;ratioP2;P2;SDS_P1;SDS_P2;PMS_P1;PMS_P2;Temp;Humidity;BMP_temperature;BMP_pressure;BME280_temperature;BME280_humidity;BME280_pressure;Samples;Min_cycle;Max_cycle;Signal;HPM_P1;HPM_P2
2022/12/12 00:02:16;;;;;;;40.80;17.10;;;-1.30;99.90;;;;;;5014093;28;20186;-83
2022/12/12 00:04:41;;;;;;;32.23;16.43;;;-1.30;99.90;;;;;;5011289;28;20194;-84
2022/12/12 00:07:07;;;;;;;31.27;13.10;;;-1.30;99.90;;;;;;5009011;28;20182;-86
2022/12/12 00:09:33;;;;;;;27.00;13.83;;;;;;;;;;5012154;28;20618;-83
2022/12/12 00:11:58;;;;;;;31.10;15.90;;;-1.20;99.90;;;;;;5005409;28;20185;-83
2022/12/12 00:14:24;;;;;;;29.27;12.20;;;-0.10;99.90;;;;;;5024334;28;20432;-85
2022/12/12 00:16:50;;;;;;;29.63;11.03;;;-1.10;99.90;;;;;;5012570;28;20240;-84
2022/12/12 00:19:15;;;;;;;31.23;14.43;;;-1.10;99.90;;;;;;5009032;28;20600;-83
2022/12/12 00:21:41;;;;;;;27.63;12.43;;;-1.30;99.90;;;;;;5011765;28;20203;-84
2022/12/12 00:24:07;;;;;;;35.27;14.67;;;-1.00;99.90;;;;;;5006446;28;20251;-83
2022/12/12 00:26:34;;;;;;;27.90;12.45;;;-1.00;99.90;;;;;;5021128;28;21953;-83
2022/12/12 00:29:02;;;;;;;30.33;15.20;;;-1.00;99.90;;;;;;5018004;28;20214;-81
2022/12/12 00:31:28;;;;;;;28.63;13.20;;;-1.10;99.90;;;;;;5025036;28;20193;-84
2022/12/12 00:33:54;;;;;;;30.15;14.80;;;-1.20;99.90;;;;;;5018661;28;20220;-82
2022/12/12 00:36:24;;;;;;;32.30;14.50;;;-1.20;99.90;;;;;;5013739;28;21078;-83
2022/12/12 00:38:51;;;;;;;36.55;14.75;;;-1.10;99.90;;;;;;5018448;28;20527;-82
2022/12/12 00:41:17;;;;;;;34.47;14.77;;;-1.10;99.90;;;;;;5014167;28;20652;-82
2022/12/12 00:43:43;;;;;;;37.17;15.30;;;-1.00;99.90;;;;;;5018114;28;20188;-83
2022/12/12 00:46:13;;;;;;;36.40;18.47;;;-1.10;99.90;;;;;;5043223;28;20437;-86
2022/12/12 00:48:39;;;;;;;26.80;12.18;;;-1.20;99.90;;;;;;5044258;28;20484;-82
2022/12/12 00:51:08;;;;;;;29.10;13.40;;;-1.20;99.90;;;;;;5027186;28;20197;-85
2022/12/12 00:53:35;;;;;;;28.48;14.30;;;-1.10;99.90;;;;;;5024229;28;20178;-83
2022/12/12 00:56:00;;;;;;;33.00;16.00;;;-1.10;99.90;;;;;;5018729;28;20174;-85
2022/12/12 00:58:26;;;;;;;38.50;18.30;;;-1.10;99.90;;;;;;5015580;28;20248;-86
2022/12/12 01:00:52;;;;;;;31.93;15.40;;;-1.10;99.90;;;;;;5018676;28;20182;-83
2022/12/12 01:03:18;;;;;;;36.43;17.83;;;-1.00;99.90;;;;;;5017247;28;20437;-84
2022/12/12 01:05:44;;;;;;;33.35;17.65;;;-1.00;99.90;;;;;;5013535;28;21084;-85
2022/12/12 01:08:10;;;;;;;32.70;16.03;;;-1.10;99.90;;;;;;5016990;28;20218;-86
2022/12/12 01:10:36;;;;;;;33.25;15.63;;;-1.30;99.90;;;;;;5019946;28;20183;-82
2022/12/12 01:13:02;;;;;;;28.33;14.82;;;-1.30;99.90;;;;;;5006013;28;20786;-85
2022/12/12 01:15:28;;;;;;;33.03;18.00;;;;;;;;;;5020958;28;20183;-86
2022/12/12 01:17:54;;;;;;;42.33;16.83;;;-1.30;99.90;;;;;;5017795;28;20535;-85
2022/12/12 01:20:23;;;;;;;32.90;16.47;;;-1.30;99.90;;;;;;5022042;28;20483;-83
2022/12/12 01:22:49;;;;;;;32.67;15.43;;;-1.30;99.90;;;;;;5023641;28;20204;-82
2022/12/12 01:25:16;;;;;;;42.47;21.45;;;-1.30;99.90;;;;;;5010353;28;20182;-85
2022/12/12 01:27:44;;;;;;;40.95;17.65;;;;;;;;;;5011729;28;20202;-85
2022/12/12 01:30:12;;;;;;;41.47;16.50;;;-1.10;99.90;;;;;;5010467;28;20193;-85
2022/12/12 01:32:37;;;;;;;30.52;16.63;;;-1.20;99.90;;;;;;5021043;28;20192;-84
2022/12/12 01:35:07;;;;;;;28.47;15.03;;;-1.20;99.90;;;;;;5014296;28;20182;-82
2022/12/12 01:37:33;;;;;;;28.75;14.23;;;;;;;;;;5015452;28;20284;-84
2022/12/12 01:39:59;;;;;;;31.83;14.80;;;;;;;;;;5013293;28;20178;-85
2022/12/12 01:42:24;;;;;;;30.53;15.27;;;;;;;;;;5023850;28;20257;-85
2022/12/12 01:44:52;;;;;;;30.03;15.70;;;-1.40;99.90;;;;;;5025453;28;20448;-85
2022/12/12 01:47:20;;;;;;;38.08;17.70;;;-1.50;99.90;;;;;;5015605;28;20486;-84
2022/12/12 01:49:53;;;;;;;36.53;18.65;;;-1.50;99.90;;;;;;5011439;28;20492;-84
2022/12/12 01:52:27;;;;;;;38.95;16.80;;;-1.60;99.90;;;;;;5002619;28;20186;-84
2022/12/12 01:54:59;;;;;;;32.88;16.08;;;-1.80;99.90;;;;;;5013053;28;20182;-85
2022/12/12 01:57:29;;;;;;;35.40;17.10;;;-2.00;99.90;;;;;;5009120;28;20214;-85
2022/12/12 01:59:55;;;;;;;34.55;16.25;;;-2.10;99.90;;;;;;5006545;28;20190;-84
2022/12/12 02:02:22;;;;;;;38.78;16.10;;;-2.00;99.90;;;;;;5028430;28;20162;-83
2022/12/12 02:04:47;;;;;;;31.17;15.80;;;-2.10;99.90;;;;;;5027930;28;20245;-87
2022/12/12 02:07:14;;;;;;;34.47;14.47;;;;;;;;;;5024430;28;20187;-84
2022/12/12 02:09:40;;;;;;;38.92;19.13;;;-2.10;99.90;;;;;;5026568;28;20229;-85
2022/12/12 02:12:05;;;;;;;40.93;17.80;;;-2.10;99.90;;;;;;5015519;28;20212;-85
2022/12/12 02:14:35;;;;;;;47.03;22.47;;;-2.20;99.90;;;;;;5010927;28;20671;-85
2022/12/12 02:17:26;;;;;;;52.35;22.58;;;-2.20;99.90;;;;;;5009127;28;20572;-84
2022/12/12 02:20:22;;;;;;;43.97;19.17;;;-2.30;99.90;;;;;;5016175;28;20196;-87
2022/12/12 02:23:07;;;;;;;45.22;19.48;;;-2.30;99.90;;;;;;5008946;28;20216;-85
2022/12/12 02:26:02;;;;;;;48.63;20.42;;;-2.40;99.90;;;;;;5010302;28;20187;-84
2022/12/12 02:29:07;;;;;;;56.03;21.45;;;-2.40;99.90;;;;;;5015236;28;20259;-83
2022/12/12 02:31:43;;;;;;;55.67;23.73;;;-2.50;99.90;;;;;;5033349;28;20185;-84
2022/12/12 02:34:32;;;;;;;49.25;22.30;;;-2.50;99.90;;;;;;5018454;28;20198;-84
2022/12/12 02:37:10;;;;;;;49.25;24.63;;;-2.50;99.90;;;;;;5013057;28;20274;-85
2022/12/12 02:39:49;;;;;;;48.22;23.13;;;-2.60;99.90;;;;;;5007218;28;20220;-84
2022/12/12 02:42:50;;;;;;;55.58;26.17;;;-2.60;99.90;;;;;;5017187;28;20174;-85
2022/12/12 02:45:33;;;;;;;50.67;22.92;;;-2.80;99.90;;;;;;5009262;28;20301;-85
2022/12/12 02:48:27;;;;;;;50.53;23.33;;;-2.70;99.90;;;;;;5012405;28;20213;-86
2022/12/12 02:50:55;;;;;;;46.78;21.88;;;-2.80;99.90;;;;;;5018108;28;20227;-82
2022/12/12 02:53:22;;;;;;;44.15;18.98;;;-2.90;99.90;;;;;;5034433;28;20265;-85
2022/12/12 02:55:48;;;;;;;46.15;18.15;;;-2.90;99.90;;;;;;5020390;28;20186;-87
2022/12/12 02:58:14;;;;;;;48.70;20.10;;;;;;;;;;5029461;28;20183;-82
2022/12/12 03:01:21;;;;;;;44.28;19.45;;;-3.00;99.90;;;;;;5021916;28;20220;-82
2022/12/12 03:10:20;;;;;;;47.60;21.38;;;-3.00;99.90;;;;;;5012069;28;20286;-85
2022/12/12 03:13:15;;;;;;;49.42;19.73;;;-2.90;99.90;;;;;;5013885;28;20234;-83
2022/12/12 03:16:11;;;;;;;57.72;22.38;;;-2.90;99.90;;;;;;5015613;28;20201;-87
2022/12/12 03:18:52;;;;;;;46.90;19.10;;;-2.80;99.90;;;;;;5025905;28;20256;-85
2022/12/12 03:21:20;;;;;;;43.10;20.60;;;-2.80;99.90;;;;;;5029577;28;20209;-81
2022/12/12 03:23:57;;;;;;;37.58;18.15;;;-2.80;99.90;;;;;;5018398;28;20189;-87
2022/12/12 03:26:31;;;;;;;45.28;19.70;;;-2.70;99.90;;;;;;5023943;28;20193;-82
2022/12/12 03:29:13;;;;;;;39.55;18.02;;;-2.70;99.90;;;;;;5033825;28;20229;-85
2022/12/12 03:31:43;;;;;;;47.95;19.15;;;-2.80;99.90;;;;;;5011320;28;20205;-83
2022/12/12 03:34:24;;;;;;;53.22;19.33;;;-3.00;99.90;;;;;;5005607;28;20213;-87
2022/12/12 03:37:04;;;;;;;38.05;17.60;;;-3.00;99.90;;;;;;5007121;28;20294;-84
2022/12/12 03:39:36;;;;;;;37.38;18.13;;;-3.00;99.90;;;;;;5015439;28;20645;-84
2022/12/12 03:42:14;;;;;;;42.03;17.20;;;-3.00;99.90;;;;;;5018781;28;20182;-84
2022/12/12 03:45:06;;;;;;;42.65;18.88;;;-3.10;99.90;;;;;;5018437;28;20193;-83
2022/12/12 03:47:40;;;;;;;42.13;18.05;;;-3.20;99.90;;;;;;5003098;28;20271;-85
2022/12/12 03:50:13;;;;;;;41.58;19.23;;;-3.20;99.90;;;;;;5015624;28;20739;-86
2022/12/12 03:52:57;;;;;;;38.78;17.67;;;-3.10;99.90;;;;;;5011610;28;20297;-84
2022/12/12 03:55:48;;;;;;;35.17;15.57;;;-3.10;99.90;;;;;;5007727;28;20568;-86
2022/12/12 03:58:28;;;;;;;33.67;15.55;;;-3.00;99.90;;;;;;5022743;28;20213;-83
2022/12/12 04:00:56;;;;;;;39.03;14.55;;;-3.00;99.90;;;;;;5023663;28;20204;-86
2022/12/12 04:03:39;;;;;;;38.42;16.98;;;-3.20;99.90;;;;;;5022586;28;20189;-84
2022/12/12 04:06:26;;;;;;;45.90;16.75;;;-3.20;99.90;;;;;;5018423;28;20173;-85
2022/12/12 04:14:41;;;;;;;41.58;17.27;;;-3.10;99.90;;;;;;5022259;28;20281;-84
2022/12/12 04:17:11;;;;;;;41.42;18.77;;;-3.00;99.90;;;;;;5017048;28;20186;-84
2022/12/12 04:28:31;;;;;;;32.60;14.73;;;-2.60;99.90;;;;;;5006050;28;20216;-85
2022/12/12 04:31:02;;;;;;;38.47;17.23;;;-2.60;99.90;;;;;;5005546;28;20236;-83
2022/12/12 04:33:34;;;;;;;43.78;19.40;;;-2.60;99.90;;;;;;5024109;28;20174;-83
2022/12/12 04:36:01;;;;;;;46.03;20.42;;;-2.50;99.90;;;;;;5012019;28;20186;-83
2022/12/12 04:38:28;;;;;;;50.95;20.00;;;-2.50;99.90;;;;;;5006056;28;20194;-86
2022/12/12 04:40:56;;;;;;;51.53;22.58;;;-2.50;99.90;;;;;;5030480;28;20614;-86
2022/12/12 04:43:32;;;;;;;42.63;17.35;;;-2.40;99.90;;;;;;5015123;28;20182;-87
2022/12/12 04:46:19;;;;;;;47.05;20.85;;;-2.40;99.90;;;;;;5011427;28;20197;-82
2022/12/12 04:48:50;;;;;;;50.95;18.70;;;-2.30;99.90;;;;;;5032683;28;20225;-83
2022/12/12 04:51:19;;;;;;;41.72;20.00;;;-2.20;99.90;;;;;;5013510;28;20182;-84
2022/12/12 04:53:55;;;;;;;47.05;20.38;;;-3.10;99.90;;;;;;5014168;28;20192;-84
2022/12/12 04:56:25;;;;;;;49.03;20.58;;;-2.40;99.90;;;;;;5013029;28;20185;-83
2022/12/12 04:58:51;;;;;;;38.67;17.55;;;-2.40;99.90;;;;;;5011517;28;20216;-86
2022/12/12 05:01:27;;;;;;;41.37;18.90;;;-2.30;99.90;;;;;;5029262;28;20175;-85
2022/12/12 05:03:57;;;;;;;42.65;18.35;;;-2.40;99.90;;;;;;5013520;28;20186;-84
2022/12/12 05:06:49;;;;;;;47.17;23.40;;;-2.40;99.90;;;;;;5016972;28;20185;-84
2022/12/12 05:09:16;;;;;;;76.45;31.48;;;-2.40;99.90;;;;;;5020568;28;20210;-85
2022/12/12 05:11:42;;;;;;;51.28;21.13;;;-2.30;99.90;;;;;;5018379;28;20501;-86
2022/12/12 05:14:09;;;;;;;53.40;22.67;;;-2.30;99.90;;;;;;5018244;28;20182;-86
2022/12/12 05:16:43;;;;;;;46.50;20.75;;;-2.20;99.90;;;;;;5014108;28;20635;-84
2022/12/12 05:19:09;;;;;;;62.17;22.70;;;-2.10;99.90;;;;;;5015741;28;20295;-83
2022/12/12 05:21:34;;;;;;;44.37;21.63;;;-2.00;99.90;;;;;;5017844;28;20189;-83
2022/12/12 05:24:00;;;;;;;64.40;23.80;;;;;;;;;;5022412;28;20178;-85
2022/12/12 05:26:28;;;;;;;45.30;20.90;;;-1.90;99.90;;;;;;5017243;28;20190;-84
2022/12/12 05:28:54;;;;;;;49.13;21.30;;;;;;;;;;5031777;28;20448;-82
2022/12/12 05:31:20;;;;;;;42.20;22.60;;;-1.90;99.90;;;;;;5048174;28;20776;-84
2022/12/12 05:33:46;;;;;;;46.07;22.87;;;-2.00;99.90;;;;;;5019328;28;20201;-84
2022/12/12 05:36:12;;;;;;;52.67;22.83;;;;;;;;;;5008891;28;20189;-83
2022/12/12 05:38:37;;;;;;;55.53;23.40;;;-2.10;99.90;;;;;;5009353;28;20225;-84
2022/12/12 05:41:04;;;;;;;48.07;21.00;;;;;;;;;;5015253;28;20443;-83
2022/12/12 05:43:30;;;;;;;46.75;23.85;;;-2.00;99.90;;;;;;5011599;28;20186;-84
2022/12/12 05:45:55;;;;;;;51.63;21.50;;;-1.90;99.90;;;;;;5009000;28;21304;-84
2022/12/12 05:48:21;;;;;;;52.30;26.17;;;;;;;;;;5007926;28;20480;-83
2022/12/12 05:50:47;;;;;;;52.33;23.10;;;-2.00;99.90;;;;;;5005667;28;20188;-82
2022/12/12 05:53:12;;;;;;;54.13;23.97;;;-1.90;99.90;;;;;;5008555;28;20758;-82
2022/12/12 05:55:38;;;;;;;43.20;20.03;;;-1.90;99.90;;;;;;5009260;28;20189;-84
2022/12/12 05:58:04;;;;;;;53.53;21.50;;;;;;;;;;5022096;28;20205;-83
2022/12/12 06:00:29;;;;;;;47.13;21.37;;;-1.90;99.90;;;;;;5031290;28;20269;-86
2022/12/12 06:02:55;;;;;;;47.40;20.20;;;-2.00;99.90;;;;;;5015335;28;20508;-83
2022/12/12 06:05:21;;;;;;;51.37;24.40;;;-2.10;99.90;;;;;;5009245;28;20272;-85
2022/12/12 06:07:46;;;;;;;53.80;23.00;;;-2.10;99.90;;;;;;5022622;28;20256;-84
2022/12/12 06:10:12;;;;;;;57.13;22.50;;;-2.00;99.90;;;;;;5022747;28;20224;-83
2022/12/12 06:12:38;;;;;;;50.53;21.30;;;-2.00;99.90;;;;;;5009994;28;20181;-85
2022/12/12 06:15:05;;;;;;;46.20;20.67;;;-2.00;99.90;;;;;;5014373;28;20450;-84
2022/12/12 06:17:30;;;;;;;44.22;21.13;;;-2.00;99.90;;;;;;5026941;28;20200;-85
2022/12/12 06:19:56;;;;;;;50.83;20.07;;;-2.00;99.90;;;;;;5017883;28;20780;-81
2022/12/12 06:22:21;;;;;;;51.73;22.30;;;-2.00;99.90;;;;;;5007720;28;20205;-86
2022/12/12 06:24:47;;;;;;;46.57;22.30;;;-2.00;99.90;;;;;;5015818;28;20182;-84
2022/12/12 06:27:12;;;;;;;64.47;26.13;;;-2.10;99.90;;;;;;5010721;28;20227;-84
2022/12/12 06:29:38;;;;;;;48.43;21.67;;;-2.10;99.90;;;;;;5013310;28;20197;-83
2022/12/12 06:32:04;;;;;;;53.33;19.90;;;-2.00;99.90;;;;;;5013429;28;20201;-85
2022/12/12 06:34:30;;;;;;;47.90;22.00;;;-2.00;99.90;;;;;;5026281;28;20179;-82
2022/12/12 06:36:55;;;;;;;45.60;20.50;;;-2.00;99.90;;;;;;5032111;28;20213;-81
2022/12/12 06:39:21;;;;;;;45.80;19.97;;;-2.10;99.90;;;;;;5025330;28;20221;-83
2022/12/12 06:41:46;;;;;;;52.37;22.43;;;-2.20;99.90;;;;;;5011852;28;20183;-86
2022/12/12 06:44:12;;;;;;;55.13;22.10;;;-2.10;99.90;;;;;;5018064;28;20190;-85
2022/12/12 06:46:38;;;;;;;52.60;22.80;;;;;;;;;;5031270;28;20175;-84
2022/12/12 06:49:08;;;;;;;57.00;22.90;;;-2.00;99.90;;;;;;5015076;28;20221;-84
2022/12/12 06:51:37;;;;;;;47.20;21.85;;;-2.00;99.90;;;;;;5039507;28;20190;-81
2022/12/12 06:54:03;;;;;;;47.22;22.00;;;-2.00;99.90;;;;;;5032160;28;20182;-85
2022/12/12 06:56:29;;;;;;;41.90;21.65;;;-2.10;99.90;;;;;;5019762;28;20191;-84
2022/12/12 06:58:57;;;;;;;49.97;22.07;;;-2.10;99.90;;;;;;5019076;28;20232;-86
2022/12/12 07:01:23;;;;;;;47.03;21.95;;;-2.00;99.90;;;;;;5015127;28;20717;-84
2022/12/12 07:03:50;;;;;;;48.93;21.23;;;-2.00;99.90;;;;;;5029164;28;20182;-85
2022/12/12 07:06:19;;;;;;;46.40;20.60;;;-1.90;99.90;;;;;;5021184;28;21036;-84
2022/12/12 07:08:45;;;;;;;43.10;22.65;;;-1.90;99.90;;;;;;5026813;28;20794;-86
2022/12/12 07:11:13;;;;;;;46.30;22.40;;;-1.90;99.90;;;;;;5013075;28;20300;-83
2022/12/12 07:13:39;;;;;;;50.90;22.45;;;-1.90;99.90;;;;;;5019108;28;20439;-83
2022/12/12 07:16:06;;;;;;;51.27;24.47;;;-1.90;99.90;;;;;;5017482;28;20182;-83
2022/12/12 07:18:31;;;;;;;42.70;21.60;;;-2.00;99.90;;;;;;5031278;28;20221;-83
2022/12/12 07:20:57;;;;;;;49.93;22.40;;;-1.90;99.90;;;;;;5022941;28;20179;-85
2022/12/12 07:23:23;;;;;;;48.40;21.50;;;;;;;;;;5012530;28;20548;-85
2022/12/12 07:25:49;;;;;;;61.92;24.75;;;-2.10;99.90;;;;;;5022146;28;20193;-83
2022/12/12 07:28:15;;;;;;;46.10;22.17;;;-2.10;99.90;;;;;;5024697;28;20206;-83
2022/12/12 07:30:44;;;;;;;46.70;21.95;;;-2.10;99.90;;;;;;5035654;28;20197;-86
2022/12/12 07:33:12;;;;;;;57.05;23.70;;;-2.10;99.90;;;;;;5019190;28;20272;-87
2022/12/12 07:35:38;;;;;;;65.57;26.75;;;;;;;;;;5019420;28;20179;-83
2022/12/12 07:38:04;;;;;;;49.20;23.60;;;;;;;;;;5014401;28;20206;-83
2022/12/12 07:40:30;;;;;;;46.83;22.70;;;-1.80;99.90;;;;;;5025581;28;20468;-86
2022/12/12 07:42:55;;;;;;;62.03;24.80;;;-2.00;99.90;;;;;;5013759;28;20210;-84
2022/12/12 07:45:21;;;;;;;52.27;24.03;;;-2.00;99.90;;;;;;5020719;28;20640;-84
2022/12/12 07:47:47;;;;;;;44.90;21.93;;;;;;;;;;5023331;28;20199;-86
2022/12/12 07:50:13;;;;;;;46.37;22.47;;;-1.90;99.90;;;;;;5017087;28;20295;-86
2022/12/12 07:52:38;;;;;;;49.77;23.00;;;-1.70;99.90;;;;;;5014842;28;20821;-84
2022/12/12 07:55:05;;;;;;;52.80;23.87;;;-1.50;99.90;;;;;;5024703;28;20202;-86
2022/12/12 07:57:30;;;;;;;52.75;23.25;;;-1.30;99.90;;;;;;5025953;28;20739;-86
2022/12/12 07:59:56;;;;;;;54.33;23.37;;;-0.90;99.90;;;;;;5016271;28;20186;-85
2022/12/12 08:02:22;;;;;;;50.43;24.03;;;-1.20;99.90;;;;;;5027480;28;20506;-82
2022/12/12 08:04:48;;;;;;;58.10;25.53;;;-1.10;99.90;;;;;;5018064;28;20460;-84
2022/12/12 08:07:13;;;;;;;55.00;26.00;;;-1.00;99.90;;;;;;5023397;28;20202;-84
2022/12/12 08:09:39;;;;;;;53.80;23.77;;;-1.00;99.90;;;;;;5010090;28;20688;-84
2022/12/12 08:12:05;;;;;;;55.60;25.50;;;-0.90;99.90;;;;;;5011469;28;20707;-84
2022/12/12 08:14:31;;;;;;;51.97;25.05;;;-0.70;99.90;;;;;;5009142;28;20186;-85
2022/12/12 08:16:56;;;;;;;56.97;25.40;;;-0.10;99.90;;;;;;5029599;28;20683;-83
2022/12/12 08:19:22;;;;;;;52.60;23.07;;;-0.40;99.90;;;;;;5015088;28;20477;-83
2022/12/12 08:21:47;;;;;;;54.63;24.20;;;-0.30;99.90;;;;;;5009782;28;20213;-82
2022/12/12 08:24:14;;;;;;;41.97;21.10;;;-0.40;99.90;;;;;;5008826;28;20191;-85
2022/12/12 08:26:41;;;;;;;46.28;22.98;;;-0.40;99.90;;;;;;5011588;28;20213;-83
2022/12/12 08:29:07;;;;;;;52.13;23.05;;;-0.50;99.90;;;;;;5012066;28;20212;-85
2022/12/12 08:31:34;;;;;;;46.33;19.48;;;;;;;;;;5017049;28;20640;-86
2022/12/12 08:34:00;;;;;;;46.92;21.70;;;-0.50;99.90;;;;;;5036364;28;20178;-82
2022/12/12 08:36:31;;;;;;;47.40;22.05;;;-0.70;99.90;;;;;;5051720;28;20205;-82
2022/12/12 08:39:00;;;;;;;47.15;22.55;;;-0.70;99.90;;;;;;5019533;28;20202;-86
2022/12/12 08:41:26;;;;;;;48.42;20.50;;;-0.70;99.90;;;;;;5026323;28;20201;-83
2022/12/12 08:43:52;;;;;;;47.23;23.30;;;-0.80;99.90;;;;;;5019635;28;20179;-84
2022/12/12 08:46:18;;;;;;;47.53;21.70;;;-0.70;99.90;;;;;;5016728;28;20215;-83
2022/12/12 08:48:46;;;;;;;54.63;24.90;;;-0.70;99.90;;;;;;5037852;28;20216;-81
2022/12/12 08:51:12;;;;;;;48.95;23.60;;;;;;;;;;5023558;28;20945;-84
2022/12/12 08:53:37;;;;;;;55.25;24.25;;;-0.60;99.90;;;;;;5024527;28;20174;-86
2022/12/12 08:56:03;;;;;;;64.03;26.50;;;-0.50;99.90;;;;;;5022505;28;20193;-81
2022/12/12 08:58:29;;;;;;;47.93;22.93;;;;;;;;;;5019575;28;20644;-85
2022/12/12 09:00:55;;;;;;;51.33;22.27;;;-0.60;99.90;;;;;;5010204;28;20429;-84
2022/12/12 09:03:21;;;;;;;50.83;23.93;;;-0.60;99.90;;;;;;5017039;28;20433;-86
2022/12/12 09:05:46;;;;;;;54.80;23.93;;;-0.40;99.90;;;;;;5009523;28;21055;-83
2022/12/12 09:08:13;;;;;;;54.80;22.37;;;-0.30;99.90;;;;;;5022916;28;20349;-85
2022/12/12 09:10:40;;;;;;;51.65;24.67;;;-0.10;99.90;;;;;;5015339;28;20178;-81
2022/12/12 09:13:06;;;;;;;47.78;23.05;;;0.00;99.90;;;;;;5022731;28;20522;-85
2022/12/12 09:15:36;;;;;;;42.23;22.87;;;0.00;99.90;;;;;;5013667;28;20182;-82
2022/12/12 09:18:02;;;;;;;44.90;22.75;;;0.10;99.90;;;;;;5025785;28;20478;-81
2022/12/12 09:20:28;;;;;;;49.45;22.75;;;0.10;99.90;;;;;;5024136;28;20746;-82
2022/12/12 09:22:54;;;;;;;53.13;22.50;;;;;;;;;;5011502;28;20186;-84
2022/12/12 09:25:20;;;;;;;46.20;22.93;;;-0.30;99.90;;;;;;5015542;28;20313;-84
2022/12/12 09:27:47;;;;;;;55.78;24.65;;;;;;;;;;5009722;28;20456;-81
2022/12/12 09:30:13;;;;;;;54.20;22.42;;;-0.20;99.90;;;;;;5007648;28;20627;-81
2022/12/12 09:32:38;;;;;;;42.47;21.70;;;;;;;;;;5019550;28;20206;-84
2022/12/12 09:35:04;;;;;;;43.63;21.87;;;-0.30;99.90;;;;;;5009470;28;21033;-82
2022/12/12 09:37:30;;;;;;;46.80;21.53;;;-0.20;99.90;;;;;;5005492;28;20432;-84
2022/12/12 09:39:56;;;;;;;49.80;22.17;;;;;;;;;;5011642;28;20436;-85
2022/12/12 09:42:28;;;;;;;54.73;24.13;;;-0.20;99.90;;;;;;5012739;28;20862;-86
2022/12/12 09:44:59;;;;;;;49.05;22.33;;;0.00;99.90;;;;;;5010614;28;20575;-83
2022/12/12 09:47:52;;;;;;;52.25;25.95;;;0.80;99.90;;;;;;5016785;28;20282;-85
2022/12/12 09:50:38;;;;;;;48.17;21.73;;;0.90;99.90;;;;;;5008370;28;20752;-85
2022/12/12 09:53:10;;;;;;;47.95;19.02;;;1.30;99.90;;;;;;5006985;28;20174;-83
2022/12/12 09:56:09;;;;;;;44.42;20.90;;;1.50;99.90;;;;;;5025919;28;20234;-83
2022/12/12 09:58:47;;;;;;;56.17;23.67;;;1.80;99.90;;;;;;5019827;28;20681;-86
2022/12/12 10:01:25;;;;;;;40.58;19.70;;;2.30;99.90;;;;;;5011731;28;20274;-84
2022/12/12 10:04:10;;;;;;;51.65;20.90;;;2.70;99.90;;;;;;5015812;28;20182;-84
2022/12/12 10:07:00;;;;;;;44.88;20.83;;;2.80;99.90;;;;;;5033549;28;20228;-83
2022/12/12 10:09:54;;;;;;;38.85;18.50;;;2.80;99.90;;;;;;5026795;28;20272;-83
2022/12/12 10:12:21;;;;;;;46.92;22.27;;;2.60;99.90;;;;;;5021422;28;20189;-87
2022/12/12 10:15:00;;;;;;;39.20;21.30;;;2.50;99.90;;;;;;5010545;28;20194;-85
2022/12/12 10:17:36;;;;;;;40.50;20.75;;;2.50;99.90;;;;;;5014668;28;20246;-86
2022/12/12 10:20:14;;;;;;;46.15;23.38;;;2.30;99.90;;;;;;5016308;28;20185;-84
2022/12/12 10:22:46;;;;;;;38.10;20.00;;;2.90;99.90;;;;;;5011243;28;21316;-82
2022/12/12 10:25:18;;;;;;;43.35;21.23;;;1.60;99.90;;;;;;5008687;28;20193;-83
2022/12/12 10:27:44;;;;;;;43.38;22.65;;;1.20;99.90;;;;;;5013214;28;20202;-85
2022/12/12 10:30:16;;;;;;;47.63;21.33;;;1.00;99.90;;;;;;5018567;28;20213;-84
2022/12/12 10:33:11;;;;;;;51.20;22.77;;;0.80;99.90;;;;;;5034954;28;20174;-82
2022/12/12 10:35:47;;;;;;;45.05;20.15;;;0.50;99.90;;;;;;5035655;28;20206;-84
2022/12/12 10:38:37;;;;;;;43.97;24.17;;;0.40;99.90;;;;;;5024612;28;20204;-85
2022/12/12 10:41:50;;;;;;;46.90;22.10;;;0.20;99.90;;;;;;5009460;28;20182;-85
2022/12/12 10:44:25;;;;;;;42.45;19.80;;;0.10;99.90;;;;;;4953182;28;20275;-85
2022/12/12 10:47:03;;;;;;;54.05;24.02;;;0.10;99.90;;;;;;5021987;28;20177;-84
2022/12/12 10:49:29;;;;;;;43.08;21.98;;;-0.10;99.90;;;;;;5017213;28;20205;-82
2022/12/12 10:51:58;;;;;;;42.63;20.25;;;-0.30;99.90;;;;;;5011446;28;20663;-87
2022/12/12 10:54:26;;;;;;;53.10;23.70;;;-0.40;99.90;;;;;;5015183;28;20268;-84
2022/12/12 10:57:18;;;;;;;51.70;23.65;;;-0.50;99.90;;;;;;5015867;28;20348;-86
2022/12/12 10:59:47;;;;;;;40.25;21.02;;;-0.50;99.90;;;;;;5007158;28;21225;-84
2022/12/12 11:02:21;;;;;;;49.25;22.20;;;-0.50;99.90;;;;;;5010620;28;20186;-83
2022/12/12 11:04:47;;;;;;;49.80;20.60;;;-0.50;99.90;;;;;;5019127;28;20181;-84
2022/12/12 11:07:21;;;;;;;54.70;25.87;;;-0.30;99.90;;;;;;5022181;28;20593;-84
2022/12/12 11:09:46;;;;;;;48.47;19.85;;;-0.10;99.90;;;;;;5016711;28;20207;-83
2022/12/12 11:12:15;;;;;;;53.13;23.30;;;0.00;99.90;;;;;;5013370;28;20641;-85
2022/12/12 11:14:48;;;;;;;46.15;21.92;;;0.10;99.90;;;;;;5032744;28;20257;-85
2022/12/12 11:17:30;;;;;;;49.20;22.90;;;0.00;99.90;;;;;;5027266;28;20828;-83
2022/12/12 11:19:59;;;;;;;47.95;22.77;;;0.00;99.90;;;;;;5014509;28;20231;-86
2022/12/12 11:22:26;;;;;;;54.35;23.17;;;0.00;99.90;;;;;;5012800;28;20174;-85
2022/12/12 11:24:52;;;;;;;51.40;24.42;;;-0.10;99.90;;;;;;5019819;28;20264;-87
2022/12/12 11:27:26;;;;;;;44.97;23.45;;;0.00;99.90;;;;;;5020151;28;20208;-87
2022/12/12 11:29:56;;;;;;;55.22;23.75;;;0.00;99.90;;;;;;5021759;28;20201;-83
2022/12/12 11:32:38;;;;;;;45.65;24.38;;;0.10;99.90;;;;;;5027080;28;20208;-83
2022/12/12 11:35:19;;;;;;;52.25;24.75;;;0.10;99.90;;;;;;5012964;28;20201;-84
2022/12/12 11:37:49;;;;;;;55.85;24.92;;;0.10;99.90;;;;;;5039979;28;20190;-82
2022/12/12 11:40:24;;;;;;;50.30;23.40;;;0.00;99.90;;;;;;5022630;28;20260;-86
2022/12/12 11:42:50;;;;;;;54.33;24.25;;;0.10;99.90;;;;;;5008353;28;20276;-83
2022/12/12 11:45:16;;;;;;;46.33;22.33;;;0.10;99.90;;;;;;5013506;28;20254;-84
2022/12/12 11:47:46;;;;;;;43.40;22.10;;;0.10;99.90;;;;;;5016563;28;20467;-84
2022/12/12 11:50:22;;;;;;;53.50;22.85;;;0.10;99.90;;;;;;5027276;28;20231;-82
2022/12/12 11:52:51;;;;;;;44.08;21.75;;;0.20;99.90;;;;;;5036177;28;20224;-82
2022/12/12 11:55:27;;;;;;;50.85;23.65;;;0.30;99.90;;;;;;5015200;28;20311;-83
2022/12/12 11:58:14;;;;;;;54.55;24.30;;;0.30;99.90;;;;;;5015248;28;20699;-83
2022/12/12 12:00:51;;;;;;;52.78;25.30;;;0.30;99.90;;;;;;5014516;28;20191;-84
2022/12/12 12:03:54;;;;;;;44.75;24.30;;;0.30;99.90;;;;;;5009090;28;20931;-82
2022/12/12 12:06:59;;;;;;;55.38;24.13;;;0.40;99.90;;;;;;5009726;28;20204;-83
2022/12/12 12:10:09;;;;;;;58.50;23.15;;;0.40;99.90;;;;;;5021859;28;20639;-82
2022/12/12 12:12:52;;;;;;;49.47;23.20;;;0.50;99.90;;;;;;5010039;28;20194;-82
2022/12/12 12:15:37;;;;;;;50.22;22.63;;;0.50;99.90;;;;;;5016813;28;20190;-84
2022/12/12 12:18:28;;;;;;;47.85;21.88;;;0.40;99.90;;;;;;5011125;28;20213;-82
2022/12/12 12:21:36;;;;;;;50.47;25.50;;;0.30;99.90;;;;;;5028306;28;20155;-82
2022/12/12 12:24:42;;;;;;;81.07;37.90;;;0.30;99.90;;;;;;5018585;28;20170;-81
2022/12/12 12:27:36;;;;;;;51.38;24.50;;;0.20;99.90;;;;;;5023492;28;20220;-83
2022/12/12 12:30:46;;;;;;;59.50;30.45;;;0.40;99.90;;;;;;5014337;28;20244;-84
2022/12/12 12:33:24;;;;;;;57.72;26.65;;;0.60;99.90;;;;;;5027585;28;20272;-80
2022/12/12 12:36:00;;;;;;;54.10;27.58;;;0.80;99.90;;;;;;5017385;28;20743;-84
2022/12/12 12:38:44;;;;;;;47.03;23.33;;;1.00;99.90;;;;;;5016655;28;20209;-85
2022/12/12 12:41:41;;;;;;;46.92;25.25;;;1.10;99.90;;;;;;5020472;28;20177;-82
2022/12/12 12:44:22;;;;;;;48.70;21.27;;;1.30;99.90;;;;;;5011193;28;20209;-85
2022/12/12 12:47:10;;;;;;;46.85;23.13;;;1.50;99.90;;;;;;5022302;28;20935;-84
2022/12/12 12:49:44;;;;;;;41.80;20.42;;;1.60;99.90;;;;;;5030854;28;20201;-82
2022/12/12 12:52:19;;;;;;;45.38;22.55;;;1.80;99.90;;;;;;5031020;28;20189;-81
2022/12/12 12:54:47;;;;;;;57.83;25.60;;;1.90;99.90;;;;;;5017997;28;20325;-83
2022/12/12 12:57:19;;;;;;;51.25;25.48;;;1.90;99.90;;;;;;5013843;28;20671;-84
2022/12/12 12:59:52;;;;;;;49.90;25.05;;;2.00;99.90;;;;;;5018826;28;20785;-84
2022/12/12 13:02:32;;;;;;;50.88;24.27;;;2.10;99.90;;;;;;5010355;28;20188;-82
2022/12/12 13:05:11;;;;;;;45.40;23.52;;;2.20;99.90;;;;;;5006763;28;20179;-84
2022/12/12 13:07:48;;;;;;;43.78;21.38;;;2.20;99.90;;;;;;5036224;28;20190;-82
2022/12/12 13:10:22;;;;;;;43.03;21.30;;;2.20;99.90;;;;;;5036980;28;20209;-81
2022/12/12 13:13:05;;;;;;;43.75;20.13;;;2.10;99.90;;;;;;5022197;28;20255;-83
2022/12/12 13:15:33;;;;;;;42.63;19.33;;;2.00;99.90;;;;;;5013416;28;20463;-83
2022/12/12 13:18:11;;;;;;;42.28;21.05;;;3.80;99.90;;;;;;5010748;28;20229;-83
2022/12/12 13:20:59;;;;;;;42.90;22.90;;;1.80;99.90;;;;;;5013049;28;20252;-84
2022/12/12 13:23:35;;;;;;;41.55;19.60;;;1.50;99.90;;;;;;5009823;28;20931;-84
2022/12/12 13:26:33;;;;;;;49.35;21.75;;;1.50;99.90;;;;;;5022301;28;20181;-82